Time;durP1;ratioP1;P1;durP2;ratioP2;P2;SDS_P1;SDS_P2;PMS_P1;PMS_P2;Temp;Humidity;BMP_temperature;BMP_pressure;BME280_temperature;BME280_humidity;BME280_pressure;Samples;Min_cycle;Max_cycle;Signal;HPM_P1;HPM_P2
2023/05/06 00:01:20;;;;;;;6.95;6.30;;;;;;;15.48;77.20;96758.03;6246142;23;20042;-75
2023/05/06 00:03:48;;;;;;;7.72;6.55;;;;;;;15.45;77.30;96756.59;6246079;23;20027;-75
2023/05/06 00:06:16;;;;;;;6.75;6.10;;;;;;;15.45;77.43;96750.53;6246765;23;20477;-75
2023/05/06 00:08:45;;;;;;;7.32;6.72;;;;;;;15.44;77.68;96751.56;6246062;23;20024;-75
2023/05/06 00:11:13;;;;;;;9.45;6.50;;;;;;;15.42;77.71;96756.22;6245701;23;20473;-75
2023/05/06 00:13:40;;;;;;;7.95;7.00;;;;;;;15.39;77.74;96752.19;6245461;23;20016;-75
2023/05/06 00:16:08;;;;;;;9.02;7.63;;;;;;;15.36;77.97;96749.97;6245777;23;20408;-74
2023/05/06 00:18:36;;;;;;;8.55;7.68;;;;;;;15.32;77.91;96746.13;6245211;23;20023;-75
2023/05/06 00:21:03;;;;;;;12.32;7.18;;;;;;;15.29;78.31;96745.75;6245921;23;20361;-75
2023/05/06 00:23:31;;;;;;;7.57;6.88;;;;;;;15.28;78.29;96739.66;6245153;23;20074;-75
2023/05/06 00:26:00;;;;;;;10.90;7.13;;;;;;;15.27;78.37;96743.31;6245304;23;20500;-74
2023/05/06 00:28:28;;;;;;;9.30;7.55;;;;;;;15.25;78.34;96729.59;6245537;23;20020;-75
2023/05/06 00:30:55;;;;;;;10.55;7.50;;;;;;;15.23;78.27;96729.00;6245326;23;20501;-75
2023/05/06 00:33:23;;;;;;;8.35;7.53;;;;;;;15.21;78.35;96729.19;6245247;23;20361;-75
2023/05/06 00:35:52;;;;;;;8.57;7.72;;;;;;;15.21;78.50;96733.63;6245343;23;20462;-75
2023/05/06 00:38:19;;;;;;;12.98;7.63;;;;;;;15.19;78.61;96733.84;6245289;23;20098;-75
2023/05/06 00:40:47;;;;;;;7.78;6.95;;;;;;;15.22;78.69;96745.78;6245414;23;20024;-75
2023/05/06 00:43:16;;;;;;;10.82;8.25;;;;;;;15.22;78.88;96738.69;6244707;23;20020;-75
2023/05/06 00:45:43;;;;;;;13.32;8.02;;;;;;;15.20;78.76;96742.56;6245203;23;20020;-75
2023/05/06 00:48:11;;;;;;;8.73;7.82;;;;;;;15.21;79.10;96733.63;6245481;23;20405;-75
2023/05/06 00:50:40;;;;;;;6.47;5.88;;;;;;;15.27;80.56;96737.28;6245515;23;20031;-75
2023/05/06 00:53:09;;;;;;;8.55;7.28;;;;;;;15.29;79.57;96733.41;6245290;23;20099;-75
2023/05/06 00:55:37;;;;;;;8.15;7.28;;;;;;;15.30;79.60;96736.84;6245213;23;20022;-75
2023/05/06 00:58:05;;;;;;;9.35;8.38;;;;;;;15.29;79.43;96727.38;6245547;23;20518;-76
2023/05/06 01:00:34;;;;;;;8.98;7.47;;;;;;;15.31;79.89;96723.50;6245195;23;20021;-75
2023/05/06 01:03:02;;;;;;;7.47;6.78;;;;;;;15.35;81.65;96727.34;6244544;23;20477;-75
2023/05/06 01:05:35;;;;;;;9.77;8.45;;;;;;;15.39;80.26;96738.22;6244918;23;20095;-75
2023/05/06 01:08:09;;;;;;;9.70;8.45;;;;;;;15.39;80.60;96740.84;6245285;23;20027;-76
2023/05/06 01:10:44;;;;;;;8.63;7.72;;;;;;;15.44;83.47;96738.41;6244704;23;20027;-75
2023/05/06 01:13:17;;;;;;;10.00;9.00;;;;;;;15.45;80.73;96740.81;6245021;23;20051;-75
2023/05/06 01:15:47;;;;;;;12.50;10.70;;;;;;;15.46;79.79;96741.66;6245268;23;20020;-76
2023/05/06 01:18:17;;;;;;;9.68;8.70;;;;;;;15.45;79.97;96734.75;6245220;23;20410;-75
2023/05/06 01:20:48;;;;;;;10.07;9.07;;;;;;;15.54;81.14;96738.75;6244422;23;20042;-76
2023/05/06 01:23:18;;;;;;;9.98;8.98;;;;;;;15.57;80.22;96742.81;6245285;23;20024;-75
2023/05/06 01:25:46;;;;;;;9.13;8.32;;;;;;;15.62;82.01;96743.78;6244720;23;20482;-75
2023/05/06 01:28:14;;;;;;;8.35;7.40;;;;;;;15.64;80.87;96730.44;6244845;23;20536;-76
2023/05/06 01:30:49;;;;;;;10.90;8.65;;;;;;;15.59;79.04;96731.06;6244754;23;20026;-75
2023/05/06 01:33:23;;;;;;;8.80;7.47;;;;;;;15.56;80.23;96730.66;6244555;23;20046;-75
2023/05/06 01:36:01;;;;;;;9.15;8.15;;;;;;;15.52;78.82;96729.47;6245128;23;20030;-75
2023/05/06 01:38:37;;;;;;;9.80;8.80;;;;;;;15.47;78.62;96730.09;6244739;23;20107;-75
2023/05/06 01:41:05;;;;;;;8.93;8.02;;;;;;;15.48;78.75;96733.53;6244492;23;20099;-75
2023/05/06 01:43:37;;;;;;;9.18;8.25;;;;;;;15.47;78.21;96735.38;6244014;23;20016;-78
2023/05/06 01:46:09;;;;;;;8.18;7.38;;;;;;;15.47;81.41;96730.09;6245056;23;20415;-75
2023/05/06 01:48:39;;;;;;;10.85;8.88;;;;;;;15.54;81.45;96735.34;6244927;23;20026;-76
2023/05/06 01:51:09;;;;;;;9.73;8.82;;;;;;;15.58;80.48;96726.81;6246201;23;20369;-75
2023/05/06 01:53:38;;;;;;;9.25;8.35;;;;;;;15.61;81.14;96734.28;6245282;23;20016;-75
2023/05/06 01:56:07;;;;;;;10.73;8.85;;;;;;;15.65;82.64;96740.75;6246047;23;20016;-75
2023/05/06 01:58:35;;;;;;;11.10;10.00;;;;;;;15.68;80.77;96734.25;6246137;23;20475;-73
2023/05/06 02:01:02;;;;;;;11.18;8.98;;;;;;;15.69;79.57;96737.69;6245112;23;20103;-74
2023/05/06 02:03:30;;;;;;;9.38;8.48;;;;;;;15.65;80.07;96734.66;6244340;23;20024;-75
2023/05/06 02:05:57;;;;;;;10.32;9.30;;;;;;;15.62;80.02;96735.91;6244284;23;20024;-75
2023/05/06 02:08:25;;;;;;;11.70;8.90;;;;;;;15.62;80.54;96741.16;6244689;23;20020;-75
2023/05/06 02:10:54;;;;;;;10.10;9.10;;;;;;;15.64;80.79;96749.63;6244650;23;20024;-75
2023/05/06 02:13:21;;;;;;;10.18;9.15;;;;;;;15.62;80.39;96743.78;6244099;23;20023;-74
2023/05/06 02:15:52;;;;;;;10.35;9.23;;;;;;;15.63;82.08;96741.94;6245836;23;20024;-73
2023/05/06 02:18:20;;;;;;;9.27;8.38;;;;;;;15.61;81.13;96744.81;6245894;23;20023;-75
2023/05/06 02:20:48;;;;;;;9.90;8.90;;;;;;;15.59;81.35;96743.38;6244524;23;20052;-75
2023/05/06 02:23:15;;;;;;;9.32;8.43;;;;;;;15.59;80.59;96736.31;6244408;23;20079;-73
2023/05/06 02:25:43;;;;;;;10.48;8.52;;;;;;;15.61;80.92;96742.19;6244609;23;20027;-76
2023/05/06 02:28:12;;;;;;;10.32;8.15;;;;;;;15.64;80.92;96748.84;6244780;23;20339;-75
2023/05/06 02:30:39;;;;;;;10.50;9.10;;;;;;;15.64;80.97;96744.38;6244064;23;20016;-74
2023/05/06 02:33:07;;;;;;;10.15;8.57;;;;;;;15.64;80.43;96743.59;6244259;23;20054;-74
2023/05/06 02:35:34;;;;;;;9.32;8.38;;;;;;;15.59;79.28;96741.59;6243972;23;20020;-75
2023/05/06 02:38:02;;;;;;;8.63;7.72;;;;;;;15.58;79.51;96747.03;6244746;23;20028;-75
2023/05/06 02:40:30;;;;;;;9.77;8.38;;;;;;;15.53;79.00;96741.63;6244067;23;20365;-75
2023/05/06 02:42:58;;;;;;;9.63;8.63;;;;;;;15.53;81.07;96745.03;6244254;23;20016;-75
2023/05/06 02:45:27;;;;;;;10.73;9.60;;;;;;;15.55;81.72;96739.59;6244067;23;20052;-75
2023/05/06 02:47:54;;;;;;;10.77;9.63;;;;;;;15.55;79.95;96734.34;6243976;23;20074;-75
2023/05/06 02:50:22;;;;;;;11.27;10.05;;;;;;;15.54;80.06;96725.59;6244800;23;20409;-75
2023/05/06 02:52:49;;;;;;;10.85;9.25;;;;;;;15.52;79.91;96724.22;6246130;23;20026;-75
2023/05/06 02:55:18;;;;;;;11.57;10.40;;;;;;;15.49;79.23;96724.66;6246445;23;20023;-75
2023/05/06 02:57:46;;;;;;;11.70;10.00;;;;;;;15.52;80.18;96722.38;6246772;23;20043;-75
2023/05/06 03:00:14;;;;;;;11.80;10.05;;;;;;;15.49;78.85;96722.81;6246426;23;20409;-74
2023/05/06 03:02:43;;;;;;;10.38;9.20;;;;;;;15.45;78.67;96725.03;6246404;23;20432;-75
2023/05/06 03:05:11;;;;;;;13.35;9.98;;;;;;;15.42;79.06;96722.06;6245626;23;20016;-75
2023/05/06 03:07:39;;;;;;;11.40;10.20;;;;;;;15.42;79.69;96737.81;6246344;23;20067;-74
2023/05/06 03:10:07;;;;;;;10.55;9.45;;;;;;;15.46;80.07;96733.75;6246343;23;20021;-75
2023/05/06 03:12:34;;;;;;;13.45;11.32;;;;;;;15.44;78.25;96733.16;6246276;23;20099;-75
2023/05/06 03:15:02;;;;;;;11.82;9.63;;;;;;;15.43;80.20;96731.53;6246338;23;20020;-75
2023/05/06 03:17:30;;;;;;;12.25;10.57;;;;;;;15.42;78.80;96737.81;6245690;23;20016;-75
2023/05/06 03:19:59;;;;;;;10.18;9.15;;;;;;;15.39;81.01;96738.22;6245599;23;20549;-75
2023/05/06 03:22:26;;;;;;;11.98;10.73;;;;;;;15.37;79.27;96738.44;6246341;23;20026;-74
2023/05/06 03:24:54;;;;;;;13.23;9.57;;;;;;;15.32;79.87;96729.56;6245763;23;20476;-75
2023/05/06 03:27:21;;;;;;;10.45;9.15;;;;;;;15.32;81.14;96734.81;6246579;23;20051;-75
2023/05/06 03:29:49;;;;;;;12.68;10.75;;;;;;;15.30;79.46;96737.66;6246389;23;20020;-75
2023/05/06 03:32:16;;;;;;;12.13;10.68;;;;;;;15.24;78.55;96734.03;6246119;23;20034;-75
2023/05/06 03:34:44;;;;;;;13.55;11.10;;;;;;;15.17;78.11;96732.44;6246215;23;20071;-75
2023/05/06 03:37:13;;;;;;;14.38;11.35;;;;;;;15.08;78.06;96733.69;6246223;23;20473;-75
2023/05/06 03:39:40;;;;;;;12.23;10.02;;;;;;;15.01;78.81;96731.09;6246192;23;20357;-75
2023/05/06 03:42:08;;;;;;;11.30;10.15;;;;;;;14.99;78.77;96730.47;6245809;23;20016;-73
2023/05/06 03:44:36;;;;;;;8.88;7.93;;;;;;;14.98;79.34;96734.94;6249878;23;20073;-75
2023/05/06 03:47:03;;;;;;;14.25;10.32;;;;;;;14.97;78.70;96733.31;6248327;23;20024;-74
2023/05/06 03:49:31;;;;;;;12.43;10.93;;;;;;;14.95;78.75;96727.44;6247632;23;20020;-75
2023/05/06 03:51:59;;;;;;;10.27;8.55;;;;;;;14.99;80.72;96731.28;6246382;23;20020;-74
2023/05/06 03:54:28;;;;;;;13.45;11.27;;;;;;;15.01;79.34;96731.88;6246756;23;20019;-75
2023/05/06 03:56:56;;;;;;;13.60;11.75;;;;;;;15.05;79.66;96729.66;6246409;23;20410;-75
2023/05/06 03:59:23;;;;;;;13.77;10.27;;;;;;;15.09;80.76;96730.88;6247123;23;20028;-74
2023/05/06 04:01:51;;;;;;;15.63;12.02;;;;;;;15.14;80.61;96731.03;6250970;23;20034;-75
2023/05/06 04:04:18;;;;;;;18.38;12.05;;;;;;;15.13;80.36;96732.06;6258213;23;20024;-73
2023/05/06 04:06:46;;;;;;;12.85;11.18;;;;;;;15.12;80.52;96734.88;6258522;23;20020;-75
2023/05/06 04:09:13;;;;;;;16.08;13.10;;;;;;;15.10;79.78;96732.47;6254312;23;20074;-74
2023/05/06 04:11:42;;;;;;;14.43;12.77;;;;;;;15.15;81.48;96729.22;6247475;23;20369;-74
2023/05/06 04:14:10;;;;;;;14.88;12.23;;;;;;;15.20;81.98;96724.97;6246894;23;20103;-74
2023/05/06 04:16:37;;;;;;;15.23;13.63;;;;;;;15.22;80.35;96728.19;6246577;23;20052;-75
2023/05/06 04:19:05;;;;;;;14.25;12.55;;;;;;;15.17;80.16;96721.94;6245168;23;20024;-75
2023/05/06 04:21:33;;;;;;;14.27;12.40;;;;;;;15.19;80.26;96735.66;6248458;23;20024;-75
2023/05/06 04:24:01;;;;;;;14.10;12.70;;;;;;;15.19;80.59;96731.22;6245902;23;20031;-75
2023/05/06 04:26:28;;;;;;;13.60;12.20;;;;;;;15.22;81.67;96736.06;6247056;23;20021;-76
2023/05/06 04:28:57;;;;;;;13.20;11.68;;;;;;;15.23;80.08;96736.88;6246362;23;20357;-76
2023/05/06 04:31:28;;;;;;;14.20;12.70;;;;;;;15.18;78.83;96726.97;6245683;23;20055;-75
2023/05/06 04:33:56;;;;;;;17.55;13.50;;;;;;;15.14;78.85;96730.25;6245717;23;20094;-76
2023/05/06 04:36:23;;;;;;;16.23;13.52;;;;;;;15.16;78.64;96730.84;6246418;23;20026;-76
2023/05/06 04:38:51;;;;;;;14.75;13.23;;;;;;;15.18;79.55;96726.19;6245527;23;20020;-76
2023/05/06 04:41:19;;;;;;;15.45;12.75;;;;;;;15.23;81.69;96735.03;6246074;23;20051;-76
2023/05/06 04:43:46;;;;;;;15.55;12.40;;;;;;;15.27;80.08;96721.50;6245803;23;20016;-76
2023/05/06 04:46:15;;;;;;;15.65;13.48;;;;;;;15.28;80.94;96734.41;6246214;23;20031;-77
2023/05/06 04:48:43;;;;;;;13.93;12.40;;;;;;;15.32;81.34;96734.81;6245681;23;20102;-75
2023/05/06 04:51:11;;;;;;;14.73;13.10;;;;;;;15.25;78.50;96733.00;6245609;23;20131;-75
2023/05/06 04:53:39;;;;;;;17.35;13.80;;;;;;;15.19;77.52;96725.16;6245279;23;20504;-76
2023/05/06 04:56:07;;;;;;;15.90;14.15;;;;;;;15.14;77.59;96727.63;6245577;23;20030;-75
2023/05/06 04:58:35;;;;;;;15.13;13.40;;;;;;;15.16;79.90;96733.47;6245294;23;20458;-75
2023/05/06 05:01:05;;;;;;;17.40;14.77;;;;;;;15.17;79.82;96735.88;6245536;23;20020;-75
2023/05/06 05:03:34;;;;;;;17.15;15.15;;;;;;;15.19;80.37;96739.09;6245124;23;20024;-75
2023/05/06 05:06:02;;;;;;;17.00;13.45;;;;;;;15.24;81.23;96743.75;6245272;23;20123;-76
2023/05/06 05:08:29;;;;;;;14.90;13.30;;;;;;;15.20;79.73;96750.44;6242277;23;20473;-74
2023/05/06 05:10:57;;;;;;;14.32;12.77;;;;;;;15.18;81.30;96750.63;6245104;23;20099;-74
2023/05/06 05:13:24;;;;;;;15.25;13.63;;;;;;;15.18;79.86;96752.47;6246032;23;20079;-75
2023/05/06 05:15:54;;;;;;;15.50;13.88;;;;;;;15.12;79.05;96761.97;6249205;23;20054;-75
2023/05/06 05:18:22;;;;;;;14.85;13.23;;;;;;;15.10;80.29;96756.09;6246779;23;20031;-75
2023/05/06 05:20:52;;;;;;;16.10;14.25;;;;;;;15.07;78.79;96753.09;6246335;23;20024;-75
2023/05/06 05:23:20;;;;;;;15.88;13.93;;;;;;;15.01;78.25;96759.97;6246640;23;20024;-75
2023/05/06 05:25:47;;;;;;;17.30;13.32;;;;;;;15.01;80.63;96770.47;6245171;23;20020;-74
2023/05/06 05:28:15;;;;;;;19.02;14.40;;;;;;;14.98;78.67;96770.91;6245226;23;20028;-75
2023/05/06 05:30:42;;;;;;;15.25;13.57;;;;;;;14.97;78.92;96770.06;6245243;23;20053;-75
2023/05/06 05:33:10;;;;;;;16.30;12.07;;;;;;;14.98;78.13;96776.16;6245057;23;20458;-75
2023/05/06 05:35:38;;;;;;;17.08;13.25;;;;;;;14.99;79.98;96778.56;6244879;23;20030;-74
2023/05/06 05:38:07;;;;;;;13.90;12.27;;;;;;;15.04;81.04;96776.16;6245006;23;20479;-74
2023/05/06 05:40:36;;;;;;;14.60;11.90;;;;;;;15.10;80.23;96774.50;6245081;23;20055;-75
2023/05/06 05:43:03;;;;;;;13.68;11.98;;;;;;;15.12;80.05;96776.94;6244646;23;20111;-74
2023/05/06 05:45:31;;;;;;;12.77;11.48;;;;;;;15.18;80.89;96776.91;6243977;23;20070;-75
2023/05/06 05:47:59;;;;;;;15.80;11.20;;;;;;;15.22;80.67;96778.13;6244872;23;20040;-74
2023/05/06 05:50:27;;;;;;;13.15;9.90;;;;;;;15.25;80.86;96775.06;6243496;23;20535;-75
2023/05/06 05:52:54;;;;;;;14.68;10.85;;;;;;;15.30;79.99;96777.06;6245734;23;20026;-75
2023/05/06 05:55:23;;;;;;;12.32;9.90;;;;;;;15.34;78.03;96780.09;6245124;23;20020;-75
2023/05/06 05:57:51;;;;;;;13.25;10.50;;;;;;;15.35;77.44;96779.91;6244545;23;20024;-76
2023/05/06 06:00:19;;;;;;;13.10;10.93;;;;;;;15.27;76.37;96792.47;6244759;23;20026;-75
2023/05/06 06:02:47;;;;;;;11.45;10.25;;;;;;;15.24;78.63;96786.59;6245393;23;20048;-75
2023/05/06 06:05:14;;;;;;;12.43;10.50;;;;;;;15.25;77.26;96792.66;6244679;23;20063;-75
2023/05/06 06:07:42;;;;;;;11.52;10.32;;;;;;;15.22;76.77;96793.09;6244811;23;20088;-76
2023/05/06 06:10:12;;;;;;;13.75;10.45;;;;;;;15.23;76.56;96800.75;6245399;23;20027;-76
2023/05/06 06:12:42;;;;;;;10.75;9.70;;;;;;;15.22;75.93;96796.50;6245554;23;20394;-76
2023/05/06 06:15:11;;;;;;;10.43;9.27;;;;;;;15.28;77.11;96797.50;6244912;23;20024;-75
2023/05/06 06:17:39;;;;;;;9.63;8.68;;;;;;;15.34;78.14;96801.94;6244676;23;20019;-75
2023/05/06 06:20:08;;;;;;;10.10;9.10;;;;;;;15.41;77.79;96801.91;6244736;23;20031;-74
2023/05/06 06:22:36;;;;;;;9.63;8.45;;;;;;;15.46;78.73;96804.75;6245330;23;20020;-75
2023/05/06 06:25:04;;;;;;;12.77;10.30;;;;;;;15.48;76.98;96807.97;6244151;23;20086;-75
2023/05/06 06:27:34;;;;;;;10.18;8.80;;;;;;;15.50;77.17;96807.75;6243964;23;20099;-76
2023/05/06 06:30:04;;;;;;;10.57;8.45;;;;;;;15.48;76.35;96807.97;6244334;23;20024;-76
2023/05/06 06:32:31;;;;;;;13.00;9.32;;;;;;;15.49;76.72;96804.31;6265578;23;20024;-76
2023/05/06 06:34:59;;;;;;;10.18;9.13;;;;;;;15.51;76.08;96812.81;6264659;23;20067;-75
2023/05/06 06:37:26;;;;;;;11.73;9.60;;;;;;;15.44;75.01;96812.03;6264610;23;20072;-75
2023/05/06 06:39:54;;;;;;;10.93;9.18;;;;;;;15.37;75.00;96821.72;6264479;23;20044;-75
2023/05/06 06:42:22;;;;;;;11.43;9.07;;;;;;;15.35;74.56;96815.88;6264489;23;20054;-76
2023/05/06 06:44:49;;;;;;;9.25;8.35;;;;;;;15.35;74.57;96818.50;6251927;23;20411;-75
2023/05/06 06:47:18;;;;;;;9.70;8.73;;;;;;;15.39;76.19;96824.97;6244775;23;20027;-75
2023/05/06 06:49:45;;;;;;;9.82;8.82;;;;;;;15.39;74.47;96817.06;6244747;23;20074;-75
2023/05/06 06:52:13;;;;;;;8.90;7.47;;;;;;;15.46;76.17;96823.13;6244356;23;20056;-75
2023/05/06 06:54:41;;;;;;;9.95;8.48;;;;;;;15.54;74.10;96819.47;6244301;23;20030;-75
2023/05/06 06:57:08;;;;;;;7.97;7.18;;;;;;;15.59;74.56;96814.38;6244729;23;20044;-75
2023/05/06 06:59:36;;;;;;;8.75;7.93;;;;;;;15.64;73.49;96815.38;6241112;23;20031;-75
2023/05/06 07:02:03;;;;;;;9.00;8.15;;;;;;;15.70;73.06;96815.56;6244407;23;20470;-76
2023/05/06 07:04:32;;;;;;;8.95;8.07;;;;;;;15.75;72.87;96818.41;6243712;23;20020;-75
2023/05/06 07:07:00;;;;;;;8.38;7.53;;;;;;;15.77;72.60;96819.00;6245349;23;20043;-75
2023/05/06 07:09:27;;;;;;;9.70;8.10;;;;;;;15.83;73.15;96826.03;6244480;23;20027;-77
2023/05/06 07:11:55;;;;;;;7.85;7.15;;;;;;;15.94;72.94;96821.94;6244621;23;20354;-76
2023/05/06 07:14:24;;;;;;;10.32;6.53;;;;;;;16.04;72.44;96822.31;6244309;23;20024;-77
2023/05/06 07:16:52;;;;;;;6.47;5.65;;;;;;;16.12;72.93;96824.69;6244502;23;20091;-76
2023/05/06 07:19:19;;;;;;;7.03;6.32;;;;;;;16.20;71.81;96828.91;6244293;23;20028;-76
2023/05/06 07:21:48;;;;;;;7.75;6.47;;;;;;;16.26;71.69;96835.94;6244752;23;20020;-75
2023/05/06 07:24:16;;;;;;;7.38;6.68;;;;;;;16.32;70.95;96829.84;6244258;23;20024;-76
2023/05/06 07:26:43;;;;;;;8.48;6.25;;;;;;;16.36;70.38;96830.22;6244344;23;20480;-75
2023/05/06 07:29:11;;;;;;;5.70;5.20;;;;;;;16.43;71.20;96831.78;6244697;23;20016;-75
2023/05/06 07:31:39;;;;;;;6.95;6.25;;;;;;;16.52;69.88;96844.72;6244340;23;20020;-75
2023/05/06 07:34:06;;;;;;;5.57;5.07;;;;;;;16.62;71.52;96843.22;6243624;23;20035;-75
2023/05/06 07:36:39;;;;;;;5.15;4.75;;;;;;;16.71;71.80;96843.75;6244555;23;20102;-75
2023/05/06 07:39:08;;;;;;;7.07;4.85;;;;;;;16.78;69.23;96844.50;6245664;23;20028;-76
2023/05/06 07:41:35;;;;;;;4.45;4.05;;;;;;;16.83;69.46;96842.06;6244531;23;20024;-75
2023/05/06 07:44:03;;;;;;;3.85;3.45;;;;;;;16.95;67.55;96844.00;6242744;23;20023;-75
2023/05/06 07:46:31;;;;;;;5.75;3.58;;;;;;;17.10;66.99;96841.84;6243831;23;20016;-74
2023/05/06 07:48:59;;;;;;;4.68;3.58;;;;;;;17.23;65.88;96846.16;6243520;23;20034;-75
2023/05/06 07:51:27;;;;;;;3.88;3.25;;;;;;;17.30;66.07;96847.72;6243652;23;20028;-75
2023/05/06 07:53:54;;;;;;;4.55;3.83;;;;;;;17.33;65.19;96841.19;6243470;23;20024;-75
2023/05/06 07:56:23;;;;;;;4.40;3.70;;;;;;;17.35;65.06;96841.00;6243823;23;20339;-75
2023/05/06 07:58:51;;;;;;;7.32;3.17;;;;;;;17.40;66.93;96838.50;6245077;23;20024;-75
2023/05/06 08:01:18;;;;;;;3.35;2.80;;;;;;;17.43;63.58;96841.50;6245735;23;20020;-75
2023/05/06 08:03:46;;;;;;;3.83;2.90;;;;;;;17.50;63.53;96846.72;6245460;23;20031;-75
2023/05/06 08:06:13;;;;;;;3.75;2.38;;;;;;;17.59;63.23;96855.13;6246472;23;20088;-75
2023/05/06 08:08:41;;;;;;;2.88;2.33;;;;;;;17.67;61.94;96846.94;6246036;23;20628;-75
2023/05/06 08:11:09;;;;;;;3.10;1.73;;;;;;;17.71;63.77;96848.13;6245530;23;20020;-75
2023/05/06 08:13:37;;;;;;;2.45;1.88;;;;;;;17.84;61.44;96849.78;6245516;23;20022;-75
2023/05/06 08:16:06;;;;;;;2.10;1.67;;;;;;;17.96;63.27;96855.16;6245410;23;20100;-75
2023/05/06 08:18:34;;;;;;;2.38;1.80;;;;;;;18.06;60.89;96853.59;6245401;23;20056;-75
2023/05/06 08:21:01;;;;;;;2.42;1.50;;;;;;;18.20;59.76;96851.56;6245492;23;20028;-75
2023/05/06 08:23:30;;;;;;;2.25;1.70;;;;;;;18.30;59.04;96846.56;6245486;23;20020;-75
2023/05/06 08:25:58;;;;;;;1.65;1.08;;;;;;;18.43;60.60;96850.88;6245092;23;20059;-74
2023/05/06 08:28:28;;;;;;;0.95;0.88;;;;;;;18.57;57.81;96853.31;6245211;23;20074;-74
2023/05/06 08:30:56;;;;;;;1.35;1.10;;;;;;;18.66;56.65;96851.94;6244793;23;20689;-75
2023/05/06 08:33:24;;;;;;;1.20;1.10;;;;;;;18.78;58.10;96859.91;6244742;23;20026;-76
2023/05/06 08:35:51;;;;;;;0.40;0.40;;;;;;;18.85;56.45;96858.00;6245167;23;20024;-74
2023/05/06 08:38:19;;;;;;;0.95;0.60;;;;;;;18.91;55.56;96863.16;6244807;23;20026;-75
2023/05/06 08:40:49;;;;;;;2.20;1.20;;;;;;;18.90;57.86;96861.53;6244933;23;20030;-76
2023/05/06 08:43:20;;;;;;;0.88;0.63;;;;;;;18.92;53.90;96863.97;6244521;23;20026;-73
2023/05/06 08:45:49;;;;;;;1.93;0.93;;;;;;;18.94;53.97;96867.19;6244846;23;20024;-75
2023/05/06 08:48:18;;;;;;;0.93;0.80;;;;;;;18.99;53.46;96855.94;6244557;23;20389;-74
2023/05/06 08:50:48;;;;;;;1.05;0.93;;;;;;;19.05;53.78;96857.66;6244808;23;20361;-76
2023/05/06 08:53:16;;;;;;;1.85;0.90;;;;;;;19.11;54.06;96851.44;6244776;23;20103;-76
2023/05/06 08:55:45;;;;;;;1.25;1.10;;;;;;;19.21;54.45;96851.66;6244384;23;20030;-75
2023/05/06 08:58:15;;;;;;;1.17;0.77;;;;;;;19.33;54.01;96857.78;6244892;23;20331;-76
2023/05/06 09:00:48;;;;;;;1.52;1.42;;;;;;;19.43;53.52;96849.25;6244619;23;20023;-77
2023/05/06 09:03:17;;;;;;;1.30;1.20;;;;;;;19.53;53.42;96854.75;6244941;23;20021;-77
2023/05/06 09:05:45;;;;;;;1.75;1.20;;;;;;;19.63;56.35;96848.06;6247677;23;20055;-79
2023/05/06 09:08:13;;;;;;;2.70;1.60;;;;;;;19.67;53.74;96849.22;6247093;23;20416;-81
2023/05/06 09:10:44;;;;;;;1.30;1.20;;;;;;;19.71;51.63;96851.19;6245884;23;20055;-76
2023/05/06 09:13:13;;;;;;;1.75;1.20;;;;;;;19.79;52.01;96843.91;6245647;23;20360;-76
2023/05/06 09:15:41;;;;;;;0.93;0.82;;;;;;;19.89;53.49;96849.41;6247166;23;20078;-76
2023/05/06 09:18:09;;;;;;;3.97;1.20;;;;;;;19.98;52.08;96845.34;6246204;23;20028;-77
2023/05/06 09:20:41;;;;;;;1.40;1.30;;;;;;;20.03;50.83;96847.28;6245193;23;20016;-77
2023/05/06 09:23:09;;;;;;;1.42;1.20;;;;;;;20.05;52.13;96846.03;6244592;23;20047;-75
2023/05/06 09:25:36;;;;;;;1.58;1.48;;;;;;;20.10;51.30;96851.41;6244220;23;20020;-75
2023/05/06 09:28:04;;;;;;;2.00;1.40;;;;;;;20.06;50.74;96844.19;6244217;23;20020;-75
2023/05/06 09:30:32;;;;;;;3.30;1.25;;;;;;;20.02;50.47;96856.28;6244576;23;20351;-75
2023/05/06 09:33:03;;;;;;;2.42;1.02;;;;;;;20.00;49.05;96851.22;6244669;23;20537;-76
2023/05/06 09:35:36;;;;;;;0.60;0.60;;;;;;;20.01;49.34;96849.41;6245313;23;20102;-76
2023/05/06 09:38:06;;;;;;;2.83;1.23;;;;;;;20.03;48.16;96850.75;6244545;23;20541;-76
2023/05/06 09:40:34;;;;;;;0.93;0.60;;;;;;;20.05;52.56;96853.16;6244856;23;20074;-76
2023/05/06 09:43:03;;;;;;;1.33;1.10;;;;;;;20.01;49.33;96850.19;6244710;23;20030;-76
2023/05/06 09:45:31;;;;;;;1.42;0.88;;;;;;;20.01;52.23;96844.91;6244584;23;20021;-76
2023/05/06 09:47:59;;;;;;;1.20;1.10;;;;;;;20.13;50.47;96842.19;6244666;23;20066;-76
2023/05/06 09:50:35;;;;;;;1.40;1.25;;;;;;;20.21;49.45;96841.81;6244945;23;20027;-75
2023/05/06 09:53:06;;;;;;;1.00;1.00;;;;;;;20.30;51.38;96842.25;6244298;23;20030;-76
2023/05/06 09:55:35;;;;;;;1.30;1.20;;;;;;;20.35;51.05;96847.63;6244658;23;20016;-76
2023/05/06 09:58:03;;;;;;;1.55;1.45;;;;;;;20.43;53.62;96849.91;6244926;23;20044;-75
2023/05/06 10:00:32;;;;;;;1.38;1.13;;;;;;;20.45;49.81;96844.38;6244323;23;20074;-74
2023/05/06 10:03:00;;;;;;;1.25;1.13;;;;;;;20.45;52.94;96850.47;6244590;23;20103;-75
2023/05/06 10:05:28;;;;;;;1.48;1.10;;;;;;;20.44;49.60;96846.19;6244324;23;20357;-75
2023/05/06 10:07:57;;;;;;;2.15;1.00;;;;;;;20.37;48.17;96842.88;6244840;23;20020;-74
2023/05/06 10:10:28;;;;;;;0.77;0.63;;;;;;;20.36;46.34;96836.00;6244763;23;20028;-77
2023/05/06 10:12:56;;;;;;;0.70;0.70;;;;;;;20.39;47.66;96835.50;6244640;23;20016;-75
2023/05/06 10:15:25;;;;;;;1.75;1.23;;;;;;;20.37;47.54;96829.66;6244303;23;20078;-75
2023/05/06 10:17:55;;;;;;;1.40;1.20;;;;;;;20.35;48.02;96840.47;6244106;23;20473;-75
2023/05/06 10:20:26;;;;;;;2.15;1.17;;;;;;;20.41;51.30;96837.94;6244677;23;20020;-75
2023/05/06 10:23:03;;;;;;;1.55;1.30;;;;;;;20.41;49.27;96836.06;6244122;23;20020;-75
2023/05/06 10:25:36;;;;;;;1.33;1.23;;;;;;;20.38;50.87;96833.91;6244429;23;20024;-75
2023/05/06 10:28:05;;;;;;;2.90;1.08;;;;;;;20.40;49.14;96831.00;6244425;23;20038;-75
2023/05/06 10:30:35;;;;;;;1.13;1.00;;;;;;;20.36;48.16;96822.75;6243972;23;20027;-75
2023/05/06 10:33:05;;;;;;;2.35;1.20;;;;;;;20.28;48.53;96818.63;6244482;23;20020;-75
2023/05/06 10:35:44;;;;;;;2.65;0.90;;;;;;;20.22;48.72;96818.78;6244366;23;20024;-75
2023/05/06 10:38:16;;;;;;;1.90;1.20;;;;;;;20.21;49.02;96817.19;6244633;23;20020;-75
2023/05/06 10:40:45;;;;;;;1.10;1.00;;;;;;;20.20;48.50;96812.91;6244397;23;20021;-75
2023/05/06 10:43:24;;;;;;;1.83;0.90;;;;;;;20.17;49.51;96809.69;6244178;23;20350;-76
2023/05/06 10:46:02;;;;;;;1.80;1.40;;;;;;;20.24;51.31;96806.91;6244164;23;20494;-76
2023/05/06 10:48:31;;;;;;;3.40;1.00;;;;;;;20.29;50.90;96808.84;6244469;23;20023;-76
2023/05/06 10:51:30;;;;;;;0.75;0.75;;;;;;;20.31;47.73;96806.75;6244056;23;20461;-76
2023/05/06 10:54:01;;;;;;;2.20;1.13;;;;;;;20.31;47.55;96804.09;6150971;23;20022;-76
2023/05/06 10:56:32;;;;;;;2.05;1.33;;;;;;;20.30;46.89;96797.22;6226140;23;20470;-76
2023/05/06 10:59:06;;;;;;;3.08;1.10;;;;;;;20.30;48.25;96808.59;6244379;23;20051;-76
2023/05/06 11:01:35;;;;;;;1.20;0.90;;;;;;;20.38;51.22;96802.13;6244588;23;20409;-75
2023/05/06 11:04:08;;;;;;;1.40;0.90;;;;;;;20.48;48.95;96802.28;6243574;23;20052;-76
2023/05/06 11:06:39;;;;;;;1.02;0.93;;;;;;;20.53;48.45;96806.84;6244699;23;20107;-75
2023/05/06 11:09:15;;;;;;;3.10;1.10;;;;;;;20.56;47.25;96793.13;6244041;23;20024;-76
2023/05/06 11:11:53;;;;;;;1.88;0.68;;;;;;;20.61;47.16;96787.94;6245027;23;20020;-76
2023/05/06 11:14:28;;;;;;;1.60;0.88;;;;;;;20.68;47.35;96790.44;6245968;23;20358;-75
2023/05/06 11:16:57;;;;;;;1.00;0.80;;;;;;;20.67;45.44;96788.84;6247295;23;20024;-75
2023/05/06 11:19:26;;;;;;;1.67;0.82;;;;;;;20.71;47.93;96789.97;6245519;23;20076;-75
2023/05/06 11:21:56;;;;;;;2.60;0.93;;;;;;;20.81;48.83;96790.09;6246163;23;20400;-75
2023/05/06 11:24:26;;;;;;;3.17;1.23;;;;;;;20.88;47.05;96787.28;6245694;23;20063;-75
2023/05/06 11:27:00;;;;;;;1.10;1.00;;;;;;;20.92;48.44;96788.41;6246192;23;20054;-74
2023/05/06 11:29:28;;;;;;;0.90;0.80;;;;;;;20.92;45.79;96783.91;6245471;23;20020;-75
2023/05/06 11:31:56;;;;;;;1.25;0.60;;;;;;;20.99;48.02;96779.25;6246081;23;20026;-75
2023/05/06 11:34:26;;;;;;;1.45;0.90;;;;;;;21.05;45.27;96782.75;6245651;23;20384;-75